Time;durP1;ratioP1;P1;durP2;ratioP2;P2;SDS_P1;SDS_P2;PMS_P1;PMS_P2;Temp;Humidity;BMP_temperature;BMP_pressure;BME280_temperature;BME280_humidity;BME280_pressure;Samples;Min_cycle;Max_cycle;Signal;HPM_P1;HPM_P2
2021/01/17 00:01:44;;;;;;;19.50;7.30;;;;;;;;;;5104600;28;20228;-80
2021/01/17 00:04:52;;;;;;;18.93;8.30;;;;;;;;;;5088323;28;20201;-81
2021/01/17 00:07:58;;;;;;;16.40;7.60;;;;;;;;;;5093241;28;20196;-81
2021/01/17 00:11:03;;;;;;;20.17;8.30;;;;;;;;;;5097656;28;20213;-80
2021/01/17 00:14:07;;;;;;;19.30;8.23;;;;;;;;;;5099474;28;20317;-82
2021/01/17 00:17:12;;;;;;;20.20;8.53;;;;;;;;;;5085536;28;20209;-81
2021/01/17 00:20:19;;;;;;;19.37;7.67;;;;;;;;;;5086343;28;20245;-82
2021/01/17 00:23:25;;;;;;;18.50;7.73;;;;;;;;;;5087405;28;20661;-81
2021/01/17 00:26:35;;;;;;;16.70;7.50;;;;;;;;;;5097728;28;20584;-82
2021/01/17 00:29:41;;;;;;;20.60;8.10;;;;;;;;;;5111575;28;20196;-81
2021/01/17 00:32:49;;;;;;;17.63;7.47;;;;;;;;;;5100560;28;20241;-83
2021/01/17 00:35:55;;;;;;;21.87;8.63;;;;;;;;;;5093930;28;20262;-82
2021/01/17 00:39:02;;;;;;;19.30;7.97;;;;;;;;;;5100733;28;20201;-82
2021/01/17 00:42:09;;;;;;;16.90;7.30;;;;;;;;;;5098957;28;20663;-82
2021/01/17 00:45:16;;;;;;;20.23;8.43;;;;;;;;;;5089291;28;20196;-81
2021/01/17 00:48:21;;;;;;;26.07;8.27;;;;;;;;;;5089845;28;20192;-81
2021/01/17 00:51:26;;;;;;;20.43;7.83;;;;;;;;;;5097535;28;20309;-82
2021/01/17 00:54:37;;;;;;;21.17;8.13;;;;;;;;;;5086325;28;20244;-81
2021/01/17 00:57:42;;;;;;;18.70;8.40;;;;;;;;;;5097037;28;20218;-82
2021/01/17 01:00:51;;;;;;;20.87;8.43;;;;;;;;;;5123860;28;20201;-79
2021/01/17 01:04:06;;;;;;;21.30;8.13;;;;;;;;;;5103452;28;20286;-78
2021/01/17 01:07:11;;;;;;;19.60;8.13;;;;;;;;;;5110409;28;20212;-81
2021/01/17 01:10:18;;;;;;;18.97;7.93;;;;;;;;;;5095332;28;20209;-81
2021/01/17 01:13:26;;;;;;;19.10;8.27;;;;;;;;;;5106307;28;20250;-80
2021/01/17 01:16:31;;;;;;;24.90;8.83;;;;;;;;;;5108084;28;20293;-81
2021/01/17 01:19:36;;;;;;;19.63;8.27;;;;;;;;;;5119206;28;20197;-82
2021/01/17 01:22:43;;;;;;;18.70;8.47;;;;;;;;;;5120587;28;20208;-81
2021/01/17 01:25:55;;;;;;;19.07;8.43;;;;;;;;;;5129088;28;20265;-81
2021/01/17 01:29:01;;;;;;;21.67;8.80;;;;;;;;;;5111664;28;20255;-83
2021/01/17 01:32:06;;;;;;;21.57;8.93;;;;;;;;;;5111796;28;20801;-82
2021/01/17 01:35:12;;;;;;;20.60;8.50;;;;;;;;;;5120571;28;20677;-81
2021/01/17 01:38:17;;;;;;;22.03;8.67;;;;;;;;;;5088636;28;20194;-82
2021/01/17 01:41:26;;;;;;;22.10;8.23;;;;;;;;;;5086789;28;20229;-81
2021/01/17 01:44:31;;;;;;;21.17;8.40;;;;;;;;;;5088192;28;20641;-82
2021/01/17 01:47:38;;;;;;;22.87;9.47;;;;;;;;;;5087997;28;20181;-82
2021/01/17 01:50:43;;;;;;;18.87;8.27;;;;;;;;;;5118973;28;20215;-82
2021/01/17 01:53:48;;;;;;;25.30;9.93;;;;;;;;;;5111919;28;20200;-82
2021/01/17 01:56:55;;;;;;;21.67;9.27;;;;;;;;;;5116047;28;20212;-81
2021/01/17 02:00:00;;;;;;;20.77;8.57;;;;;;;;;;5119739;28;20184;-81
2021/01/17 02:03:06;;;;;;;23.03;9.13;;;;;;;;;;5126256;28;20240;-82
2021/01/17 02:06:12;;;;;;;19.67;8.33;;;;;;;;;;5127247;28;20188;-82
2021/01/17 02:09:26;;;;;;;19.17;8.47;;;;;;;;;;5107370;28;20220;-80
2021/01/17 02:12:34;;;;;;;20.37;8.70;;;;;;;;;;5118252;28;20221;-81
2021/01/17 02:15:41;;;;;;;20.83;8.70;;;;;;;;;;5119655;28;20220;-80
2021/01/17 02:18:48;;;;;;;21.37;9.03;;;;;;;;;;5117507;28;20185;-82
2021/01/17 02:21:57;;;;;;;23.80;8.77;;;;;;;;;;5135140;28;20236;-81
2021/01/17 02:25:06;;;;;;;20.87;8.80;;;;;;;;;;5113021;28;20929;-82
2021/01/17 02:28:13;;;;;;;21.50;9.37;;;;;;;;;;5116135;28;20209;-82
2021/01/17 02:31:18;;;;;;;22.80;9.03;;;;;;;;;;5117183;28;20232;-82
2021/01/17 02:34:26;;;;;;;20.00;8.37;;;;;;;;;;5124530;28;20253;-81
2021/01/17 02:37:34;;;;;;;19.53;8.00;;;;;;;;;;5136282;28;20236;-81
2021/01/17 02:40:58;;;;;;;18.53;7.90;;;;;;;;;;5113711;28;20371;-81
2021/01/17 02:44:06;;;;;;;24.30;9.33;;;;;;;;;;5118531;28;20232;-80
2021/01/17 02:47:11;;;;;;;20.87;8.73;;;;;;;;;;5102475;28;20236;-82
2021/01/17 02:50:16;;;;;;;20.63;8.57;;;;;;;;;;5097890;28;20251;-81
2021/01/17 02:53:24;;;;;;;22.53;8.77;;;;;;;;;;5088626;28;20273;-82
2021/01/17 02:56:31;;;;;;;25.27;9.20;;;;;;;;;;5086722;28;20584;-82
2021/01/17 02:59:43;;;;;;;22.67;9.10;;;;;;;;;;5096437;28;20192;-81
2021/01/17 03:02:50;;;;;;;23.73;9.13;;;;;;;;;;5085665;28;20305;-82
2021/01/17 03:05:55;;;;;;;21.60;8.20;;;;;;;;;;5093106;28;20219;-82
2021/01/17 03:09:00;;;;;;;23.30;9.17;;;;;;;;;;5103863;28;20185;-81
2021/01/17 03:12:05;;;;;;;22.07;9.33;;;;;;;;;;5083874;28;20233;-81
2021/01/17 03:15:13;;;;;;;23.90;9.57;;;;;;;;;;5097768;28;20282;-82
2021/01/17 03:18:17;;;;;;;25.80;9.50;;;;;;;;;;5082559;28;20225;-80
2021/01/17 03:21:21;;;;;;;26.77;9.77;;;;;;;;;;5093731;28;20723;-81
2021/01/17 03:24:29;;;;;;;23.97;8.73;;;;;;;;;;5089376;28;20244;-81
2021/01/17 03:27:34;;;;;;;24.93;9.60;;;;;;;;;;5083032;28;20190;-81
2021/01/17 03:30:40;;;;;;;25.53;8.87;;;;;;;;;;5106599;28;20212;-81
2021/01/17 03:33:44;;;;;;;25.77;8.93;;;;;;;;;;5102330;28;20275;-81
2021/01/17 03:36:49;;;;;;;25.70;9.90;;;;;;;;;;5090121;28;20218;-81
2021/01/17 03:39:53;;;;;;;26.07;9.83;;;;;;;;;;5101613;28;20205;-81
2021/01/17 03:42:58;;;;;;;23.60;9.83;;;;;;;;;;5083928;28;20225;-82
2021/01/17 03:46:04;;;;;;;24.73;9.27;;;;;;;;;;5082022;28;20270;-81
2021/01/17 03:49:08;;;;;;;27.20;10.10;;;;;;;;;;5081792;28;20305;-81
2021/01/17 03:52:13;;;;;;;26.90;9.83;;;;;;;;;;5082301;28;20276;-81
2021/01/17 03:55:18;;;;;;;26.40;10.10;;;;;;;;;;5096668;28;20267;-81
2021/01/17 03:58:23;;;;;;;25.20;9.73;;;;;;;;;;5092179;28;20228;-81
2021/01/17 04:01:29;;;;;;;23.20;9.43;;;;;;;;;;5106508;28;20228;-81
2021/01/17 04:04:33;;;;;;;24.30;10.07;;;;;;;;;;5118892;28;20196;-80
2021/01/17 04:07:39;;;;;;;24.77;8.90;;;;;;;;;;5103617;28;20185;-81
2021/01/17 04:10:43;;;;;;;25.07;9.47;;;;;;;;;;5104164;28;20257;-82
2021/01/17 04:13:48;;;;;;;27.97;10.37;;;;;;;;;;5083677;28;20213;-81
2021/01/17 04:16:54;;;;;;;20.57;8.97;;;;;;;;;;5085664;28;20225;-81
2021/01/17 04:20:00;;;;;;;23.80;9.50;;;;;;;;;;5102618;28;20201;-81
2021/01/17 04:23:05;;;;;;;27.43;10.27;;;;;;;;;;5100762;28;20723;-81
2021/01/17 04:26:10;;;;;;;29.53;9.13;;;;;;;;;;5119532;28;20209;-82
2021/01/17 04:29:15;;;;;;;23.30;9.37;;;;;;;;;;5115355;28;20568;-81
2021/01/17 04:32:21;;;;;;;26.37;9.30;;;;;;;;;;5109886;28;20229;-81
2021/01/17 04:35:26;;;;;;;26.83;9.60;;;;;;;;;;5085559;28;20321;-80
2021/01/17 04:38:31;;;;;;;22.43;9.40;;;;;;;;;;5105144;28;20213;-81
2021/01/17 04:41:36;;;;;;;27.60;9.77;;;;;;;;;;5088928;28;20229;-81
2021/01/17 04:44:51;;;;;;;22.90;9.30;;;;;;;;;;5102154;28;20213;-81
2021/01/17 04:47:58;;;;;;;26.43;9.00;;;;;;;;;;5104466;28;20259;-80
2021/01/17 04:51:04;;;;;;;24.50;9.13;;;;;;;;;;5101290;28;20194;-81
2021/01/17 04:54:09;;;;;;;24.57;9.00;;;;;;;;;;5098772;28;20270;-81
2021/01/17 04:57:22;;;;;;;25.73;9.67;;;;;;;;;;5082717;28;20302;-81
2021/01/17 05:00:29;;;;;;;22.53;8.93;;;;;;;;;;5084432;28;20649;-81
2021/01/17 05:03:53;;;;;;;24.33;9.10;;;;;;;;;;5084183;28;20229;-81
2021/01/17 05:07:08;;;;;;;30.67;10.97;;;;;;;;;;5082609;28;20217;-81
2021/01/17 05:10:14;;;;;;;24.97;9.87;;;;;;;;;;5090980;28;20201;-82
2021/01/17 05:13:25;;;;;;;23.03;9.33;;;;;;;;;;5105694;28;20224;-81
2021/01/17 05:16:31;;;;;;;27.20;10.50;;;;;;;;;;5118169;28;20195;-81
2021/01/17 05:19:39;;;;;;;26.40;9.53;;;;;;;;;;5096886;28;20281;-82
2021/01/17 05:22:45;;;;;;;27.37;9.80;;;;;;;;;;5083889;28;20329;-81
2021/01/17 05:25:50;;;;;;;24.17;8.77;;;;;;;;;;5093554;28;20570;-81
2021/01/17 05:28:55;;;;;;;23.63;9.17;;;;;;;;;;5086585;28;20201;-81
2021/01/17 05:32:02;;;;;;;22.60;9.27;;;;;;;;;;5089888;28;20221;-81
2021/01/17 05:35:09;;;;;;;25.10;9.70;;;;;;;;;;5094882;28;20226;-82
2021/01/17 05:38:14;;;;;;;24.97;9.20;;;;;;;;;;5087496;28;20307;-81
2021/01/17 05:41:25;;;;;;;26.57;10.27;;;;;;;;;;5097369;28;20224;-81
2021/01/17 05:44:30;;;;;;;26.10;9.80;;;;;;;;;;5112547;28;20200;-81
2021/01/17 05:47:35;;;;;;;23.70;8.97;;;;;;;;;;5087933;28;20193;-77
2021/01/17 05:50:45;;;;;;;22.10;8.93;;;;;;;;;;5083503;28;20240;-77
2021/01/17 05:53:50;;;;;;;26.57;9.37;;;;;;;;;;5091431;28;20196;-77
2021/01/17 05:56:55;;;;;;;21.90;9.20;;;;;;;;;;5080940;28;20229;-78
2021/01/17 06:00:00;;;;;;;28.03;10.03;;;;;;;;;;5084208;28;20259;-77
2021/01/17 06:03:05;;;;;;;22.47;9.43;;;;;;;;;;5082663;28;20309;-78
2021/01/17 06:06:11;;;;;;;25.27;9.77;;;;;;;;;;5103282;28;20258;-81
2021/01/17 06:09:19;;;;;;;27.07;9.27;;;;;;;;;;5095259;28;20299;-81
2021/01/17 06:12:29;;;;;;;23.07;8.80;;;;;;;;;;5097411;28;20270;-81
2021/01/17 06:15:34;;;;;;;26.20;9.43;;;;;;;;;;5083787;28;20275;-81
2021/01/17 06:18:38;;;;;;;22.87;8.50;;;;;;;;;;5080066;28;20708;-81
2021/01/17 06:21:48;;;;;;;28.97;10.40;;;;;;;;;;5079853;28;20229;-81
2021/01/17 06:24:59;;;;;;;32.87;11.60;;;;;;;;;;5095754;28;20703;-80
2021/01/17 06:28:06;;;;;;;26.23;10.60;;;;;;;;;;5099166;28;20668;-81
2021/01/17 06:31:11;;;;;;;23.80;9.17;;;;;;;;;;5082530;28;20243;-81
2021/01/17 06:34:16;;;;;;;25.80;10.23;;;;;;;;;;5081478;28;20190;-80
2021/01/17 06:37:23;;;;;;;27.37;10.07;;;;;;;;;;5102642;28;20231;-80
2021/01/17 06:40:31;;;;;;;25.73;9.83;;;;;;;;;;5105577;28;20266;-80
2021/01/17 06:43:40;;;;;;;25.37;9.53;;;;;;;;;;5096209;28;20209;-81
2021/01/17 06:46:46;;;;;;;29.93;10.17;;;;;;;;;;5101478;28;20204;-81
2021/01/17 06:49:52;;;;;;;23.80;9.73;;;;;;;;;;5103304;28;20582;-80
2021/01/17 06:52:58;;;;;;;27.57;10.27;;;;;;;;;;5104989;28;20240;-80
2021/01/17 06:56:14;;;;;;;25.00;9.67;;;;;;;;;;5104050;28;20201;-81
2021/01/17 06:59:35;;;;;;;27.97;10.90;;;;;;;;;;5099540;28;20555;-81
2021/01/17 07:02:40;;;;;;;33.70;11.50;;;;;;;;;;5083864;28;20608;-81
2021/01/17 07:06:06;;;;;;;29.43;10.63;;;;;;;;;;5100451;28;20201;-81
2021/01/17 07:09:13;;;;;;;27.73;10.40;;;;;;;;;;5099552;28;20201;-80
2021/01/17 07:12:25;;;;;;;26.50;10.43;;;;;;;;;;5088576;28;20632;-77
2021/01/17 07:15:31;;;;;;;27.57;10.77;;;;;;;;;;5099699;28;20205;-77
2021/01/17 07:18:37;;;;;;;32.57;11.50;;;;;;;;;;5088261;28;20247;-77
2021/01/17 07:21:42;;;;;;;33.83;13.30;;;;;;;;;;5101214;28;20655;-76
2021/01/17 07:24:48;;;;;;;26.97;10.27;;;;;;;;;;5089515;28;20246;-77
2021/01/17 07:28:09;;;;;;;31.37;10.73;;;;;;;;;;5098734;28;20614;-77
2021/01/17 07:31:20;;;;;;;30.73;11.30;;;;;;;;;;5089517;28;20256;-78
2021/01/17 07:34:24;;;;;;;34.53;12.47;;;;;;;;;;5097043;28;20201;-77
2021/01/17 07:37:31;;;;;;;34.90;12.70;;;;;;;;;;5100826;28;20221;-77
2021/01/17 07:40:51;;;;;;;31.73;12.37;;;;;;;;;;5083796;28;20722;-77
2021/01/17 07:44:01;;;;;;;29.50;12.00;;;;;;;;;;5105611;28;20574;-77
2021/01/17 07:47:11;;;;;;;34.63;12.20;;;;;;;;;;5097368;28;20225;-77
2021/01/17 07:50:16;;;;;;;59.83;22.73;;;;;;;;;;5094697;28;20238;-77
2021/01/17 07:53:31;;;;;;;34.40;12.90;;;;;;;;;;5095236;28;20199;-77
2021/01/17 07:56:37;;;;;;;49.13;17.00;;;;;;;;;;5081304;28;20674;-77
2021/01/17 07:59:42;;;;;;;36.63;14.63;;;;;;;;;;5081713;28;20246;-77
2021/01/17 08:02:49;;;;;;;35.07;12.90;;;;;;;;;;5081214;28;20220;-77
2021/01/17 08:05:55;;;;;;;30.67;12.37;;;;;;;;;;5084257;28;20677;-78
2021/01/17 08:09:00;;;;;;;28.37;11.27;;;;;;;;;;5080990;28;20216;-77
2021/01/17 08:12:06;;;;;;;31.10;11.70;;;;;;;;;;5080796;28;20253;-78
2021/01/17 08:15:25;;;;;;;31.10;11.03;;;;;;;;;;5081288;28;20719;-78
2021/01/17 08:18:34;;;;;;;30.13;12.20;;;;;;;;;;5090817;28;20280;-78
2021/01/17 08:21:39;;;;;;;33.00;12.20;;;;;;;;;;5083882;28;20253;-78
2021/01/17 08:24:43;;;;;;;27.30;11.03;;;;;;;;;;5080698;28;20606;-77
2021/01/17 08:27:49;;;;;;;30.23;11.57;;;;;;;;;;5101628;28;20181;-77
2021/01/17 08:30:54;;;;;;;32.83;12.03;;;;;;;;;;5091775;28;20285;-78
2021/01/17 08:34:06;;;;;;;34.67;13.17;;;;;;;;;;5083097;28;20209;-78
2021/01/17 08:37:16;;;;;;;39.80;13.50;;;;;;;;;;5100923;28;20216;-77
2021/01/17 08:40:41;;;;;;;38.43;13.40;;;;;;;;;;5080759;28;20740;-77
2021/01/17 08:43:50;;;;;;;39.60;14.80;;;;;;;;;;5080831;28;20186;-77
2021/01/17 08:46:55;;;;;;;37.83;14.43;;;;;;;;;;5090468;28;20796;-77
2021/01/17 08:49:59;;;;;;;37.37;14.70;;;;;;;;;;5099415;28;20193;-78
2021/01/17 08:53:07;;;;;;;38.10;15.03;;;;;;;;;;5098446;28;20209;-78
2021/01/17 08:56:20;;;;;;;32.57;12.83;;;;;;;;;;5114633;28;20286;-78
2021/01/17 08:59:38;;;;;;;42.57;14.87;;;;;;;;;;5111131;28;20208;-77
2021/01/17 09:02:44;;;;;;;39.60;14.77;;;;;;;;;;5093738;28;20278;-78
2021/01/17 09:05:48;;;;;;;38.00;14.33;;;;;;;;;;5097188;28;20678;-78
2021/01/17 09:09:13;;;;;;;42.43;15.57;;;;;;;;;;5082123;28;20252;-78
2021/01/17 09:12:18;;;;;;;47.73;17.97;;;;;;;;;;5081655;28;20229;-78
2021/01/17 09:15:28;;;;;;;43.87;16.63;;;;;;;;;;5080744;28;20299;-81
2021/01/17 09:18:35;;;;;;;37.97;12.83;;;;;;;;;;5109974;28;20256;-81
2021/01/17 09:21:42;;;;;;;46.17;16.00;;;;;;;;;;5080634;28;20266;-81
2021/01/17 09:24:49;;;;;;;46.73;16.80;;;;;;;;;;5081450;28;20185;-80
2021/01/17 09:27:57;;;;;;;52.33;17.97;;;;;;;;;;5081702;28;20189;-81
2021/01/17 09:31:06;;;;;;;60.90;20.93;;;;;;;;;;5096416;28;20660;-81
2021/01/17 09:34:11;;;;;;;43.73;16.97;;;;;;;;;;5107126;28;20676;-81
2021/01/17 09:37:17;;;;;;;41.83;15.80;;;;;;;;;;5085441;28;20231;-77
2021/01/17 09:40:21;;;;;;;48.10;17.97;;;;;;;;;;5094877;28;20197;-81
2021/01/17 09:43:26;;;;;;;46.03;17.63;;;;;;;;;;5085907;28;20720;-81
2021/01/17 09:46:34;;;;;;;49.63;18.53;;;;;;;;;;5084807;28;20582;-81
2021/01/17 09:49:39;;;;;;;57.83;19.83;;;;;;;;;;5079653;28;20204;-81
2021/01/17 09:52:44;;;;;;;49.87;19.53;;;;;;;;;;5083289;28;20231;-81
2021/01/17 09:55:48;;;;;;;59.57;21.90;;;;;;;;;;5123833;27;20691;-81
2021/01/17 09:58:53;;;;;;;52.93;21.37;;;;;;;;;;5097796;28;20236;-81
2021/01/17 10:02:02;;;;;;;54.07;21.00;;;;;;;;;;5098746;28;20244;-80
2021/01/17 10:05:08;;;;;;;56.10;21.83;;;;;;;;;;5102242;28;20208;-81
2021/01/17 10:08:13;;;;;;;55.40;21.43;;;;;;;;;;5106290;28;20573;-80
2021/01/17 10:11:23;;;;;;;58.83;22.40;;;;;;;;;;5102559;28;20229;-81
2021/01/17 10:14:30;;;;;;;55.27;20.70;;;;;;;;;;5113677;27;20216;-81
2021/01/17 10:17:36;;;;;;;57.77;21.23;;;;;;;;;;5083370;28;20613;-81
2021/01/17 10:20:41;;;;;;;59.77;21.63;;;;;;;;;;5109887;28;20212;-81
2021/01/17 10:23:45;;;;;;;55.23;20.73;;;;;;;;;;5093608;28;20224;-81
2021/01/17 10:26:52;;;;;;;55.73;21.07;;;;;;;;;;5084913;28;20200;-82
2021/01/17 10:29:56;;;;;;;54.83;22.47;;;;;;;;;;5083930;28;20217;-81
2021/01/17 10:33:04;;;;;;;56.50;22.17;;;;;;;;;;5083524;28;20282;-81
2021/01/17 10:36:11;;;;;;;59.73;21.87;;;;;;;;;;5087563;28;20672;-81
2021/01/17 10:39:20;;;;;;;51.80;21.40;;;;;;;;;;5096038;28;20193;-81
2021/01/17 10:42:28;;;;;;;55.73;20.27;;;;;;;;;;5099418;28;20740;-81
2021/01/17 10:45:33;;;;;;;56.07;21.50;;;;;;;;;;5111272;27;20582;-81
2021/01/17 10:48:45;;;;;;;58.63;22.47;;;;;;;;;;5095635;28;20213;-81
2021/01/17 10:51:51;;;;;;;53.30;21.33;;;;;;;;;;5116545;28;20299;-81
2021/01/17 10:54:57;;;;;;;56.30;21.83;;;;;;;;;;5102634;28;20188;-81
2021/01/17 10:58:03;;;;;;;58.30;20.27;;;;;;;;;;5104312;28;20224;-81
2021/01/17 11:01:10;;;;;;;52.83;20.07;;;;;;;;;;5124368;28;20184;-81
2021/01/17 11:04:16;;;;;;;56.87;22.33;;;;;;;;;;5103418;28;20201;-81
2021/01/17 11:07:27;;;;;;;56.40;21.73;;;;;;;;;;5106935;28;20205;-81
2021/01/17 11:10:32;;;;;;;52.60;20.03;;;;;;;;;;5106208;28;20209;-81
2021/01/17 11:13:38;;;;;;;59.17;21.97;;;;;;;;;;5116260;28;20278;-81
2021/01/17 11:16:43;;;;;;;55.17;19.87;;;;;;;;;;5105495;28;20190;-81
2021/01/17 11:19:49;;;;;;;59.57;21.90;;;;;;;;;;5104669;28;20755;-81
2021/01/17 11:22:53;;;;;;;57.80;21.73;;;;;;;;;;5087427;28;20645;-81
2021/01/17 11:25:58;;;;;;;56.93;22.57;;;;;;;;;;5084059;28;20201;-81
2021/01/17 11:29:05;;;;;;;57.00;21.77;;;;;;;;;;5082595;28;20240;-81
2021/01/17 11:32:10;;;;;;;49.50;19.97;;;;;;;;;;5082861;28;20323;-82
2021/01/17 11:35:26;;;;;;;54.77;21.03;;;;;;;;;;5086124;28;20566;-80
2021/01/17 11:38:43;;;;;;;56.77;20.77;;;;;;;;;;5082796;28;20342;-81
2021/01/17 11:41:49;;;;;;;65.47;24.60;;;;;;;;;;5082373;28;20229;-81
2021/01/17 11:44:54;;;;;;;132.80;41.13;;;;;;;;;;5082014;28;20193;-81
2021/01/17 11:47:59;;;;;;;103.53;32.80;;;;;;;;;;5094281;28;20184;-82
2021/01/17 11:51:06;;;;;;;131.47;37.67;;;;;;;;;;5082077;28;20221;-82
2021/01/17 11:54:11;;;;;;;50.53;19.80;;;;;;;;;;5081718;28;20255;-81
2021/01/17 11:57:15;;;;;;;56.67;21.57;;;;;;;;;;5081672;28;20210;-82
2021/01/17 12:00:20;;;;;;;56.17;20.30;;;;;;;;;;5081954;28;20267;-82
2021/01/17 12:03:26;;;;;;;53.30;20.33;;;;;;;;;;5081814;28;20247;-82
2021/01/17 12:06:32;;;;;;;105.43;33.77;;;;;;;;;;5081321;28;20185;-82
2021/01/17 12:09:37;;;;;;;54.37;20.77;;;;;;;;;;5081103;28;20208;-81
2021/01/17 12:12:42;;;;;;;50.57;18.47;;;;;;;;;;5081905;28;20676;-81
2021/01/17 12:15:47;;;;;;;44.90;16.77;;;;;;;;;;5082583;28;20209;-80
2021/01/17 12:18:52;;;;;;;42.93;17.17;;;;;;;;;;5102499;28;20219;-81
2021/01/17 12:21:58;;;;;;;38.33;15.07;;;;;;;;;;5087588;28;20217;-78
2021/01/17 12:25:03;;;;;;;29.83;12.23;;;;;;;;;;5083037;28;20629;-77
2021/01/17 12:28:09;;;;;;;32.13;13.73;;;;;;;;;;5085143;28;20209;-79
2021/01/17 12:31:15;;;;;;;40.27;15.53;;;;;;;;;;5083578;28;20226;-77
2021/01/17 12:34:19;;;;;;;47.83;16.23;;;;;;;;;;5079910;28;20198;-77
2021/01/17 12:37:25;;;;;;;34.07;13.73;;;;;;;;;;5080489;28;20260;-77
2021/01/17 12:40:30;;;;;;;40.37;15.63;;;;;;;;;;5081530;28;20189;-77
2021/01/17 12:43:35;;;;;;;39.90;14.60;;;;;;;;;;5080422;28;20287;-77
2021/01/17 12:46:40;;;;;;;38.70;16.00;;;;;;;;;;5081053;28;20254;-77
2021/01/17 12:49:46;;;;;;;50.80;18.30;;;;;;;;;;5082518;28;20202;-77
2021/01/17 12:52:52;;;;;;;43.93;17.30;;;;;;;;;;5080915;28;20588;-78
2021/01/17 12:55:57;;;;;;;38.70;15.60;;;;;;;;;;5080754;28;20201;-78
2021/01/17 12:59:01;;;;;;;38.57;16.40;;;;;;;;;;5082385;28;20256;-78
2021/01/17 13:02:06;;;;;;;36.13;14.23;;;;;;;;;;5081039;28;20762;-79
2021/01/17 13:05:10;;;;;;;35.63;15.13;;;;;;;;;;5093324;28;20599;-78
2021/01/17 13:08:17;;;;;;;36.20;14.23;;;;;;;;;;5081808;28;20206;-78
2021/01/17 13:11:21;;;;;;;37.83;13.57;;;;;;;;;;5087139;28;20389;-80
2021/01/17 13:14:26;;;;;;;38.40;13.97;;;;;;;;;;5081369;28;20204;-79
2021/01/17 13:17:31;;;;;;;34.30;14.07;;;;;;;;;;5094850;28;20294;-79
2021/01/17 13:20:36;;;;;;;40.13;15.10;;;;;;;;;;5098627;28;20196;-80
2021/01/17 13:23:42;;;;;;;40.10;15.63;;;;;;;;;;5103229;28;20197;-80
2021/01/17 13:26:52;;;;;;;39.70;15.43;;;;;;;;;;5124148;28;20257;-80
2021/01/17 13:30:02;;;;;;;38.67;14.33;;;;;;;;;;5097052;28;20213;-79
2021/01/17 13:33:12;;;;;;;39.33;14.93;;;;;;;;;;5096904;28;20286;-80
2021/01/17 13:36:19;;;;;;;38.80;14.20;;;;;;;;;;5094889;28;20661;-80
2021/01/17 13:39:26;;;;;;;39.53;15.67;;;;;;;;;;5101452;28;20384;-79
2021/01/17 13:42:31;;;;;;;35.57;14.63;;;;;;;;;;5114525;28;20297;-79
2021/01/17 13:45:36;;;;;;;37.27;15.03;;;;;;;;;;5126899;28;20216;-80
2021/01/17 13:48:41;;;;;;;35.97;14.80;;;;;;;;;;5085910;28;20205;-81
2021/01/17 13:51:46;;;;;;;37.63;13.93;;;;;;;;;;5089353;28;20240;-80
2021/01/17 13:54:52;;;;;;;45.20;16.37;;;;;;;;;;5100730;28;20209;-77
2021/01/17 13:57:57;;;;;;;38.50;16.10;;;;;;;;;;5082095;28;20217;-81
2021/01/17 14:01:02;;;;;;;40.23;15.90;;;;;;;;;;5083320;28;20567;-79
2021/01/17 14:04:07;;;;;;;39.30;15.77;;;;;;;;;;5081408;28;20209;-78
2021/01/17 14:07:12;;;;;;;39.73;16.10;;;;;;;;;;5080850;28;20247;-79
2021/01/17 14:10:18;;;;;;;37.93;15.43;;;;;;;;;;5082966;28;20193;-79
2021/01/17 14:13:23;;;;;;;38.33;15.87;;;;;;;;;;5093173;28;20228;-77
2021/01/17 14:16:27;;;;;;;39.07;16.70;;;;;;;;;;5081132;28;20212;-74
2021/01/17 14:19:32;;;;;;;39.37;15.87;;;;;;;;;;5099848;28;20603;-75
2021/01/17 14:22:37;;;;;;;45.60;17.13;;;;;;;;;;5081383;28;20271;-76
2021/01/17 14:25:43;;;;;;;45.53;18.23;;;;;;;;;;5085677;28;20263;-74
2021/01/17 14:28:47;;;;;;;44.50;16.90;;;;;;;;;;5088484;28;20213;-75
2021/01/17 14:31:52;;;;;;;41.50;16.63;;;;;;;;;;5103337;28;20223;-79
2021/01/17 14:34:58;;;;;;;36.53;15.17;;;;;;;;;;5091650;28;20721;-77
2021/01/17 14:38:04;;;;;;;39.77;15.93;;;;;;;;;;5084725;28;20272;-77
2021/01/17 14:41:09;;;;;;;40.73;16.47;;;;;;;;;;5079902;28;20209;-78
2021/01/17 14:44:14;;;;;;;37.43;14.70;;;;;;;;;;5088447;28;20206;-80
2021/01/17 14:47:18;;;;;;;34.97;13.90;;;;;;;;;;5100110;28;20225;-74
2021/01/17 14:50:23;;;;;;;34.07;14.43;;;;;;;;;;5089883;28;20213;-76
2021/01/17 14:53:28;;;;;;;34.10;13.63;;;;;;;;;;5085390;28;20612;-76
2021/01/17 14:56:40;;;;;;;29.50;12.50;;;;;;;;;;5095490;28;20239;-75
2021/01/17 14:59:45;;;;;;;33.33;13.43;;;;;;;;;;5086283;28;20577;-75
2021/01/17 15:02:50;;;;;;;59.00;19.17;;;;;;;;;;5090338;28;20221;-75
2021/01/17 15:05:55;;;;;;;43.30;15.03;;;;;;;;;;5102341;28;20228;-75
2021/01/17 15:09:00;;;;;;;43.23;16.00;;;;;;;;;;5107680;28;20212;-78
2021/01/17 15:12:07;;;;;;;39.57;14.80;;;;;;;;;;5097784;28;20238;-78
2021/01/17 15:15:12;;;;;;;39.73;15.80;;;;;;;;;;5102061;28;20236;-77
2021/01/17 15:18:17;;;;;;;41.87;16.27;;;;;;;;;;5101951;28;20228;-78
2021/01/17 15:21:22;;;;;;;44.10;16.87;;;;;;;;;;5103971;28;20251;-77
2021/01/17 15:24:31;;;;;;;43.30;15.43;;;;;;;;;;5114786;28;20266;-77
2021/01/17 15:27:37;;;;;;;41.07;16.53;;;;;;;;;;5110817;28;20258;-77
2021/01/17 15:30:41;;;;;;;43.90;16.93;;;;;;;;;;5106543;28;20707;-78
2021/01/17 15:33:46;;;;;;;45.00;16.20;;;;;;;;;;5110993;28;20217;-78
2021/01/17 15:36:51;;;;;;;45.93;17.17;;;;;;;;;;5107469;28;20244;-78
2021/01/17 15:39:56;;;;;;;44.40;16.87;;;;;;;;;;5095251;28;20284;-78
2021/01/17 15:43:01;;;;;;;40.37;15.67;;;;;;;;;;5101272;28;20264;-78
2021/01/17 15:46:09;;;;;;;38.53;15.77;;;;;;;;;;5095709;28;20643;-77
2021/01/17 15:49:14;;;;;;;42.03;16.33;;;;;;;;;;5100256;28;20216;-77
2021/01/17 15:52:18;;;;;;;39.10;14.40;;;;;;;;;;5101202;28;20225;-77
2021/01/17 15:55:23;;;;;;;35.47;14.17;;;;;;;;;;5100380;28;20571;-76
2021/01/17 15:58:28;;;;;;;39.77;15.33;;;;;;;;;;5113510;28;20225;-74
2021/01/17 16:01:34;;;;;;;44.00;16.50;;;;;;;;;;5097693;28;20362;-73
2021/01/17 16:04:38;;;;;;;49.63;18.50;;;;;;;;;;5100729;28;20270;-73
2021/01/17 16:07:47;;;;;;;55.53;21.87;;;;;;;;;;5097378;28;20196;-74
2021/01/17 16:10:51;;;;;;;75.03;28.13;;;;;;;;;;5089550;28;20212;-74
2021/01/17 16:13:57;;;;;;;80.87;29.80;;;;;;;;;;5090831;28;20194;-74
2021/01/17 16:17:01;;;;;;;67.10;24.97;;;;;;;;;;5096146;28;20282;-76
2021/01/17 16:20:07;;;;;;;49.50;19.37;;;;;;;;;;5096752;28;20584;-76
2021/01/17 16:23:11;;;;;;;47.17;19.40;;;;;;;;;;5084321;28;20285;-76
2021/01/17 16:26:16;;;;;;;54.83;19.93;;;;;;;;;;5119681;28;20288;-75
2021/01/17 16:29:21;;;;;;;49.40;19.13;;;;;;;;;;5092391;28;20205;-75
2021/01/17 16:32:29;;;;;;;50.00;16.83;;;;;;;;;;5080796;28;20228;-76
2021/01/17 16:35:33;;;;;;;54.43;20.17;;;;;;;;;;5097551;28;20242;-76
2021/01/17 16:38:38;;;;;;;54.83;20.93;;;;;;;;;;5100378;28;20216;-76
2021/01/17 16:41:42;;;;;;;56.60;20.17;;;;;;;;;;5100863;28;20264;-75
2021/01/17 16:44:48;;;;;;;49.73;19.53;;;;;;;;;;5098524;28;20208;-76
2021/01/17 16:47:53;;;;;;;48.33;19.00;;;;;;;;;;5106001;28;20662;-74
2021/01/17 16:50:58;;;;;;;52.90;19.03;;;;;;;;;;5113083;28;20240;-78
2021/01/17 16:54:03;;;;;;;45.97;18.40;;;;;;;;;;5112541;28;20254;-74
2021/01/17 16:57:08;;;;;;;47.70;19.60;;;;;;;;;;5109252;28;20224;-77
2021/01/17 17:00:15;;;;;;;49.87;19.87;;;;;;;;;;5105910;28;20196;-77
2021/01/17 17:03:19;;;;;;;59.33;21.53;;;;;;;;;;5092497;28;20304;-75
2021/01/17 17:06:24;;;;;;;50.50;18.90;;;;;;;;;;5095161;28;20273;-75
2021/01/17 17:09:30;;;;;;;41.47;16.90;;;;;;;;;;5101300;28;20707;-74
2021/01/17 17:12:38;;;;;;;64.13;23.50;;;;;;;;;;5080386;28;20582;-75
2021/01/17 17:15:44;;;;;;;60.70;21.20;;;;;;;;;;5101622;28;20285;-78
2021/01/17 17:18:49;;;;;;;55.53;22.07;;;;;;;;;;5113645;28;20254;-77
2021/01/17 17:21:54;;;;;;;61.87;26.07;;;;;;;;;;5095084;28;20275;-78
2021/01/17 17:24:59;;;;;;;56.90;21.50;;;;;;;;;;5098504;28;20660;-78
2021/01/17 17:28:05;;;;;;;55.17;21.23;;;;;;;;;;5095209;28;20714;-77
2021/01/17 17:31:11;;;;;;;53.73;21.00;;;;;;;;;;5109199;28;20216;-77
2021/01/17 17:34:17;;;;;;;50.23;19.57;;;;;;;;;;5098452;28;20213;-76
2021/01/17 17:37:21;;;;;;;50.23;21.17;;;;;;;;;;5079937;28;20953;-74
2021/01/17 17:40:27;;;;;;;50.83;20.40;;;;;;;;;;5092875;28;20575;-74
2021/01/17 17:43:32;;;;;;;51.90;20.73;;;;;;;;;;5083485;28;20209;-74
2021/01/17 17:46:37;;;;;;;54.87;21.43;;;;;;;;;;5089436;28;20212;-73
2021/01/17 17:49:42;;;;;;;49.67;19.67;;;;;;;;;;5097560;28;20216;-72
2021/01/17 17:52:47;;;;;;;63.90;24.07;;;;;;;;;;5113465;28;20308;-74
2021/01/17 17:55:52;;;;;;;58.97;22.00;;;;;;;;;;5090695;28;20217;-74
2021/01/17 17:58:57;;;;;;;61.23;23.37;;;;;;;;;;5087331;28;20220;-75
2021/01/17 18:02:03;;;;;;;61.93;23.47;;;;;;;;;;5091026;28;20240;-73
2021/01/17 18:05:08;;;;;;;61.07;23.20;;;;;;;;;;5092626;28;20565;-75
2021/01/17 18:08:12;;;;;;;59.53;22.27;;;;;;;;;;5094781;28;20208;-75
2021/01/17 18:11:17;;;;;;;56.60;21.40;;;;;;;;;;5086776;28;20229;-73